createdAt,value
2019-01-12T00:01:36.603Z,-0.80
2019-01-12T00:04:17.609Z,-0.80
2019-01-12T00:06:58.466Z,-0.90
2019-01-12T00:09:38.944Z,-0.90
2019-01-12T00:12:20.017Z,-1.00
2019-01-12T00:15:00.750Z,-1.00
2019-01-12T00:17:41.749Z,-1.00
2019-01-12T00:20:22.457Z,-0.90
2019-01-12T00:23:03.458Z,-1.00
2019-01-12T00:25:44.377Z,-1.00
2019-01-12T00:28:25.192Z,-1.00
2019-01-12T00:31:05.844Z,-1.00
2019-01-12T00:33:46.715Z,-1.00
2019-01-12T00:36:27.078Z,-0.90
2019-01-12T00:39:08.997Z,-0.90
2019-01-12T00:41:49.561Z,-0.90
2019-01-12T00:44:30.577Z,-0.90
2019-01-12T00:47:11.152Z,-0.90
2019-01-12T00:49:55.620Z,-0.90
2019-01-12T00:52:36.780Z,-0.90
2019-01-12T00:55:17.443Z,-0.90
2019-01-12T00:57:58.276Z,-0.90
2019-01-12T01:00:39.030Z,-0.90
2019-01-12T01:03:19.853Z,-0.90
2019-01-12T01:06:00.568Z,-0.90
2019-01-12T01:08:41.369Z,-0.80
2019-01-12T01:11:22.537Z,-0.80
2019-01-12T01:14:03.276Z,-0.80
2019-01-12T01:16:44.115Z,-0.80
2019-01-12T01:19:25.352Z,-0.80
2019-01-12T01:22:06.238Z,-0.80
2019-01-12T01:24:47.160Z,-0.80
2019-01-12T01:27:27.962Z,-0.80
2019-01-12T01:30:08.784Z,-0.90
2019-01-12T01:32:49.694Z,-0.90
2019-01-12T01:35:30.592Z,-0.90
2019-01-12T01:38:11.221Z,-0.90
2019-01-12T01:40:52.351Z,-0.90
2019-01-12T01:43:32.994Z,-0.80
2019-01-12T01:46:13.968Z,-0.80
2019-01-12T01:48:54.735Z,-0.80
2019-01-12T01:51:35.400Z,-0.80
2019-01-12T01:54:16.266Z,-0.80
2019-01-12T01:56:57.300Z,-0.80
2019-01-12T01:59:37.824Z,-0.80
2019-01-12T02:02:18.552Z,-0.80
2019-01-12T02:04:59.494Z,-0.80
2019-01-12T02:07:40.204Z,-0.80
2019-01-12T02:10:21.152Z,-0.80
2019-01-12T02:13:01.911Z,-0.80
2019-01-12T02:15:42.642Z,-0.80
2019-01-12T02:18:23.408Z,-0.70
2019-01-12T02:21:04.101Z,-0.70
2019-01-12T02:23:44.868Z,-0.70
2019-01-12T02:26:25.717Z,-0.70
2019-01-12T02:29:06.608Z,-0.70
2019-01-12T02:31:47.349Z,-0.70
2019-01-12T02:34:28.376Z,-0.60
2019-01-12T02:39:55.975Z,-0.60
2019-01-12T02:42:36.798Z,-0.60
2019-01-12T02:45:17.722Z,-0.60
2019-01-12T02:47:58.387Z,-0.60
2019-01-12T02:50:39.163Z,-0.60
2019-01-12T02:53:19.827Z,-0.60
2019-01-12T02:56:00.606Z,-0.60
2019-01-12T02:58:41.187Z,-0.60
2019-01-12T03:01:22.116Z,-0.60
2019-01-12T03:04:03.359Z,-0.60
2019-01-12T03:06:44.099Z,-0.60
2019-01-12T03:09:25.207Z,-0.70
2019-01-12T03:12:05.996Z,-0.60
2019-01-12T03:14:46.915Z,-0.60
2019-01-12T03:17:27.646Z,-0.60
2019-01-12T03:20:08.416Z,-0.60
2019-01-12T03:22:49.310Z,-0.60
2019-01-12T03:25:30.569Z,-0.60
2019-01-12T03:28:11.370Z,-0.60
2019-01-12T03:30:52.088Z,-0.60
2019-01-12T03:33:33.018Z,-0.60
2019-01-12T03:36:13.724Z,-0.70
2019-01-12T03:38:54.545Z,-0.70
2019-01-12T03:41:35.431Z,-0.70
2019-01-12T03:44:16.595Z,-0.70
2019-01-12T03:46:57.567Z,-0.70
2019-01-12T03:49:38.313Z,-0.70
2019-01-12T03:52:19.063Z,-0.70
2019-01-12T03:55:01.571Z,-0.70
2019-01-12T03:57:42.460Z,-0.60
2019-01-12T04:00:23.321Z,-0.60
2019-01-12T04:03:04.001Z,-0.70
2019-01-12T04:05:33.082Z,-0.60
2019-01-12T04:08:21.237Z,-0.70
2019-01-12T04:11:09.395Z,-0.60
2019-01-12T04:13:50.393Z,-0.70
2019-01-12T04:16:31.224Z,-0.70
2019-01-12T04:19:11.756Z,-0.70
2019-01-12T04:21:52.627Z,-0.70
2019-01-12T04:24:33.419Z,-0.70
2019-01-12T04:27:14.169Z,-0.80
2019-01-12T04:29:54.638Z,-0.80
2019-01-12T04:32:35.577Z,-0.70
2019-01-12T04:35:16.215Z,-0.80
2019-01-12T04:37:57.464Z,-0.70
2019-01-12T04:40:37.888Z,-0.70
2019-01-12T04:43:19.121Z,-0.70
2019-01-12T04:46:00.400Z,-0.70
2019-01-12T04:48:41.392Z,-0.70
2019-01-12T04:51:22.802Z,-0.70
2019-01-12T04:54:03.530Z,-0.70
2019-01-12T04:56:44.224Z,-0.70
2019-01-12T04:59:24.813Z,-0.70
2019-01-12T05:02:06.708Z,-0.70
2019-01-12T05:04:47.385Z,-0.70
2019-01-12T05:07:28.408Z,-0.70
2019-01-12T05:10:11.460Z,-0.70
2019-01-12T05:12:51.936Z,-0.70
2019-01-12T05:15:32.894Z,-0.70
2019-01-12T05:18:13.688Z,-0.70
2019-01-12T05:20:54.421Z,-0.70
2019-01-12T05:23:35.350Z,-0.70
2019-01-12T05:26:16.089Z,-0.70
2019-01-12T05:28:57.105Z,-0.60
2019-01-12T05:31:37.805Z,-0.60
2019-01-12T05:34:18.619Z,-0.60
2019-01-12T05:36:59.428Z,-0.60
2019-01-12T05:39:40.219Z,-0.60
2019-01-12T05:42:21.038Z,-0.60
2019-01-12T05:45:01.896Z,-0.60
2019-01-12T05:47:42.781Z,-0.60
2019-01-12T05:50:23.431Z,-0.60
2019-01-12T05:53:04.228Z,-0.60
2019-01-12T05:55:45.056Z,-0.60
2019-01-12T05:58:25.929Z,-0.60
2019-01-12T06:01:06.867Z,-0.60
2019-01-12T06:03:47.357Z,-0.60
2019-01-12T06:06:28.164Z,-0.60
2019-01-12T06:09:08.827Z,-0.60
2019-01-12T06:11:49.485Z,-0.60
2019-01-12T06:17:08.641Z,-0.50
2019-01-12T06:19:49.124Z,-0.50
2019-01-12T06:22:29.645Z,-0.60
2019-01-12T06:25:11.946Z,-0.60
2019-01-12T06:27:56.336Z,-0.60
2019-01-12T06:30:36.829Z,-0.60
2019-01-12T06:33:18.025Z,-0.60
2019-01-12T06:35:59.236Z,-0.60
2019-01-12T06:38:39.881Z,-0.60
2019-01-12T06:41:20.781Z,-0.60
2019-01-12T06:44:01.149Z,-0.60
2019-01-12T06:46:42.932Z,-0.60
2019-01-12T06:49:23.741Z,-0.60
2019-01-12T06:52:04.824Z,-0.60
2019-01-12T06:54:45.653Z,-0.60
2019-01-12T06:57:26.564Z,-0.60
2019-01-12T07:00:07.432Z,-0.60
2019-01-12T07:02:48.095Z,-0.60
2019-01-12T07:05:28.824Z,-0.50
2019-01-12T07:08:09.945Z,-0.50
2019-01-12T07:10:50.839Z,-0.50
2019-01-12T07:13:31.694Z,-0.50
2019-01-12T07:16:12.347Z,-0.50
2019-01-12T07:18:53.271Z,-0.40
2019-01-12T07:21:33.609Z,-0.40
2019-01-12T07:24:14.494Z,-0.40
2019-01-12T07:26:55.365Z,-0.40
2019-01-12T07:29:36.147Z,-0.40
2019-01-12T07:32:16.754Z,-0.30
2019-01-12T07:34:57.304Z,-0.20
2019-01-12T07:37:38.648Z,-0.20
2019-01-12T07:40:19.676Z,-0.20
2019-01-12T07:43:03.873Z,-0.20
2019-01-12T07:45:46.375Z,-0.20
2019-01-12T07:48:27.481Z,-0.20
2019-01-12T07:51:08.489Z,-0.20
2019-01-12T07:53:48.927Z,-0.10
2019-01-12T07:56:29.612Z,-0.10
2019-01-12T07:59:11.008Z,-0.10
2019-01-12T08:01:52.122Z,0.00
2019-01-12T08:04:32.966Z,0.00
2019-01-12T08:07:13.972Z,0.00
2019-01-12T08:09:54.758Z,0.10
2019-01-12T08:12:35.594Z,0.10
2019-01-12T08:15:16.185Z,0.10
2019-01-12T08:17:57.247Z,0.10
2019-01-12T08:20:37.643Z,0.20
2019-01-12T08:23:18.532Z,0.20
2019-01-12T08:25:59.451Z,0.30
2019-01-12T08:28:40.176Z,0.30
2019-01-12T08:31:21.052Z,0.40
2019-01-12T08:34:01.787Z,0.40
2019-01-12T08:36:42.574Z,0.50
2019-01-12T08:39:23.395Z,0.50
2019-01-12T08:42:03.826Z,0.50
2019-01-12T08:44:47.907Z,0.60
2019-01-12T08:47:28.265Z,0.60
2019-01-12T08:50:09.087Z,0.70
2019-01-12T08:52:49.859Z,0.80
2019-01-12T08:55:31.036Z,0.80
2019-01-12T08:58:11.768Z,0.90
2019-01-12T09:00:52.469Z,1.00
2019-01-12T09:03:38.026Z,1.00
2019-01-12T09:06:20.429Z,1.00
2019-01-12T09:09:01.473Z,1.10
2019-01-12T09:11:42.304Z,1.20
2019-01-12T09:14:23.150Z,1.20
2019-01-12T09:17:04.228Z,1.30
2019-01-12T09:19:45.071Z,1.40
2019-01-12T09:27:43.932Z,1.70
2019-01-12T09:30:24.825Z,1.60
2019-01-12T09:33:05.865Z,1.60
2019-01-12T09:35:46.676Z,1.50
2019-01-12T09:38:27.502Z,1.60
2019-01-12T09:43:57.324Z,1.60
2019-01-12T09:46:38.435Z,1.60
2019-01-12T09:49:19.619Z,1.60
2019-01-12T09:52:00.712Z,1.70
2019-01-12T09:54:41.749Z,1.70
2019-01-12T09:57:22.581Z,1.80
2019-01-12T09:59:51.637Z,1.90
2019-01-12T10:02:39.766Z,1.90
2019-01-12T10:05:20.442Z,1.90
2019-01-12T10:08:01.213Z,1.90
2019-01-12T10:10:41.792Z,2.00
2019-01-12T10:13:22.461Z,2.00
2019-01-12T10:16:03.323Z,2.10
2019-01-12T10:18:44.262Z,2.10
2019-01-12T10:21:25.328Z,2.10
2019-01-12T10:24:06.088Z,2.10
2019-01-12T10:26:46.813Z,2.20
2019-01-12T10:29:27.974Z,2.20
2019-01-12T10:32:08.650Z,2.30
2019-01-12T10:34:49.500Z,2.30
2019-01-12T10:37:30.407Z,2.30
2019-01-12T10:39:59.378Z,2.40
2019-01-12T10:42:47.558Z,2.40
2019-01-12T10:45:35.854Z,2.50
2019-01-12T10:48:16.224Z,2.60
2019-01-12T10:50:57.088Z,2.60
2019-01-12T10:53:42.011Z,2.70
2019-01-12T10:56:26.209Z,2.60
2019-01-12T10:59:06.826Z,2.60
2019-01-12T11:01:47.659Z,2.60
2019-01-12T11:04:28.366Z,2.70
2019-01-12T11:07:09.077Z,2.70
2019-01-12T11:12:40.528Z,2.80
2019-01-12T11:15:28.664Z,2.60
2019-01-12T11:18:09.758Z,2.60
2019-01-12T11:20:50.155Z,2.70
2019-01-12T11:23:31.293Z,2.80
2019-01-12T11:26:11.644Z,2.80
2019-01-12T11:28:52.157Z,2.80
2019-01-12T11:31:33.485Z,2.90
2019-01-12T11:34:13.889Z,2.90
2019-01-12T11:36:54.477Z,2.90
2019-01-12T11:39:35.248Z,2.80
2019-01-12T11:42:16.366Z,2.80
2019-01-12T11:44:56.974Z,2.70
2019-01-12T11:47:38.509Z,2.70
2019-01-12T11:50:19.420Z,2.60
2019-01-12T11:53:01.167Z,2.60
2019-01-12T11:55:42.206Z,2.60
2019-01-12T11:58:23.000Z,2.60
2019-01-12T12:01:04.260Z,2.70
2019-01-12T12:03:44.772Z,2.70
2019-01-12T12:06:25.750Z,2.70
2019-01-12T12:09:06.910Z,2.70
2019-01-12T12:11:37.079Z,2.70
2019-01-12T12:14:25.288Z,2.70
2019-01-12T12:17:13.460Z,2.80
2019-01-12T12:19:54.370Z,2.80
2019-01-12T12:22:35.210Z,2.80
2019-01-12T12:25:16.060Z,2.90
2019-01-12T12:27:57.281Z,2.90
2019-01-12T12:30:38.371Z,3.00
2019-01-12T12:33:18.972Z,3.10
2019-01-12T12:35:59.602Z,3.20
2019-01-12T12:38:40.114Z,3.10
2019-01-12T12:41:20.817Z,3.10
2019-01-12T12:44:01.936Z,3.10
2019-01-12T12:46:42.636Z,3.10
2019-01-12T12:49:23.844Z,3.10
2019-01-12T12:52:04.289Z,3.20
2019-01-12T12:54:45.022Z,3.20
2019-01-12T12:57:32.647Z,3.30
2019-01-12T13:00:08.047Z,3.30
2019-01-12T13:02:48.833Z,3.20
2019-01-12T13:05:29.767Z,3.00
2019-01-12T13:08:10.571Z,2.80
2019-01-12T13:10:51.480Z,2.70
2019-01-12T13:13:32.403Z,2.50
2019-01-12T13:16:13.021Z,2.60
2019-01-12T13:18:53.878Z,2.60
2019-01-12T13:21:35.064Z,2.60
2019-01-12T13:24:15.857Z,2.70
2019-01-12T13:26:56.801Z,2.80
2019-01-12T13:29:37.689Z,2.80
2019-01-12T13:32:22.075Z,2.80
2019-01-12T13:35:02.851Z,2.90
2019-01-12T13:37:43.770Z,3.30
2019-01-12T13:40:24.849Z,3.70
2019-01-12T13:43:05.733Z,4.00
2019-01-12T13:45:46.675Z,4.10
2019-01-12T13:48:27.224Z,4.10
2019-01-12T13:51:08.141Z,4.10
2019-01-12T13:53:49.444Z,3.70
2019-01-12T13:56:30.008Z,3.40
2019-01-12T13:59:10.939Z,3.30
2019-01-12T14:01:51.953Z,3.30
2019-01-12T14:04:32.877Z,3.30
2019-01-12T14:07:13.597Z,3.30
2019-01-12T14:09:54.753Z,3.30
2019-01-12T14:12:35.658Z,3.30
2019-01-12T14:15:16.557Z,3.20
2019-01-12T14:17:57.382Z,3.00
2019-01-12T14:20:38.130Z,2.90
2019-01-12T14:23:18.832Z,2.80
2019-01-12T14:25:59.866Z,2.70
2019-01-12T14:28:40.302Z,2.50
2019-01-12T14:36:39.204Z,2.50
2019-01-12T14:39:20.377Z,2.30
2019-01-12T14:42:01.447Z,2.30
2019-01-12T14:44:42.530Z,2.20
2019-01-12T14:47:25.466Z,2.20
2019-01-12T14:50:06.499Z,2.30
2019-01-12T14:52:47.616Z,2.30
2019-01-12T14:55:16.901Z,2.30
2019-01-12T14:58:05.578Z,2.30
2019-01-12T15:00:53.761Z,2.30
2019-01-12T15:03:34.342Z,2.30
2019-01-12T15:06:15.138Z,2.20
2019-01-12T15:08:55.905Z,2.20
2019-01-12T15:11:36.734Z,2.20
2019-01-12T15:14:17.509Z,2.20
2019-01-12T15:16:58.365Z,2.10
2019-01-12T15:19:39.352Z,2.00
2019-01-12T15:22:20.156Z,2.00
2019-01-12T15:25:00.938Z,2.00
2019-01-12T15:27:41.974Z,1.90
2019-01-12T15:30:22.733Z,1.90
2019-01-12T15:33:03.637Z,1.90
2019-01-12T15:35:44.524Z,1.90
2019-01-12T15:38:25.352Z,1.90
2019-01-12T15:41:06.196Z,1.90
2019-01-12T15:43:47.105Z,1.80
2019-01-12T15:46:28.104Z,1.80
2019-01-12T15:49:08.789Z,1.80
2019-01-12T15:51:49.848Z,1.80
2019-01-12T15:54:31.077Z,1.80
2019-01-12T15:57:11.809Z,1.80
2019-01-12T15:59:52.507Z,1.80
2019-01-12T16:02:39.709Z,1.80
2019-01-12T16:05:16.350Z,1.80
2019-01-12T16:07:57.152Z,1.80
2019-01-12T16:10:37.988Z,1.80
2019-01-12T16:13:18.768Z,1.80
2019-01-12T16:15:59.422Z,1.80
2019-01-12T16:18:28.488Z,1.80
2019-01-12T16:21:16.614Z,1.80
2019-01-12T16:24:00.649Z,1.70
2019-01-12T16:26:41.848Z,1.70
2019-01-12T16:29:22.846Z,1.70
2019-01-12T16:32:03.806Z,1.70
2019-01-12T16:34:44.496Z,1.60
2019-01-12T16:37:25.186Z,1.60
2019-01-12T16:40:06.365Z,1.60
2019-01-12T16:42:47.258Z,1.60
2019-01-12T16:45:28.593Z,1.60
2019-01-12T16:48:13.434Z,1.60
2019-01-12T16:50:54.275Z,1.60
2019-01-12T16:53:35.273Z,1.60
2019-01-12T16:56:16.270Z,1.60
2019-01-12T16:58:56.955Z,1.60
2019-01-12T17:01:37.668Z,1.60
2019-01-12T17:04:18.782Z,1.50
2019-01-12T17:06:59.457Z,1.50
2019-01-12T17:09:40.322Z,1.50
2019-01-12T17:12:21.270Z,1.50
2019-01-12T17:15:02.091Z,1.60
2019-01-12T17:17:42.878Z,1.60
2019-01-12T17:20:23.563Z,1.60
2019-01-12T17:23:04.468Z,1.60
2019-01-12T17:25:45.348Z,1.60
2019-01-12T17:28:26.264Z,1.60
2019-01-12T17:31:07.376Z,1.50
2019-01-12T17:33:48.092Z,1.50
2019-01-12T17:36:29.092Z,1.50
2019-01-12T17:39:10.567Z,1.40
2019-01-12T17:41:51.905Z,1.40
2019-01-12T17:44:32.631Z,1.50
2019-01-12T17:47:13.625Z,1.50
2019-01-12T17:49:54.313Z,1.50
2019-01-12T17:52:34.952Z,1.50
2019-01-12T17:55:15.737Z,1.50
2019-01-12T17:57:56.454Z,1.50
2019-01-12T18:00:41.918Z,1.40
2019-01-12T18:03:23.135Z,1.40
2019-01-12T18:06:03.857Z,1.40
2019-01-12T18:08:44.729Z,1.40
2019-01-12T18:11:25.469Z,1.40
2019-01-12T18:14:06.232Z,1.40
2019-01-12T18:16:46.951Z,1.40
2019-01-12T18:19:27.726Z,1.40
2019-01-12T18:22:11.839Z,1.40
2019-01-12T18:24:52.195Z,1.40
2019-01-12T18:27:33.065Z,1.40
2019-01-12T18:30:13.818Z,1.40
2019-01-12T18:32:54.803Z,1.40
2019-01-12T18:35:35.425Z,1.40
2019-01-12T18:38:17.335Z,1.40
2019-01-12T18:43:46.241Z,1.50
2019-01-12T18:46:27.129Z,1.40
2019-01-12T18:49:07.736Z,1.40
2019-01-12T18:51:48.672Z,1.40
2019-01-12T18:54:29.253Z,1.50
2019-01-12T18:57:09.864Z,1.50
2019-01-12T18:59:50.678Z,1.50
2019-01-12T19:02:31.446Z,1.50
2019-01-12T19:05:13.212Z,1.50
2019-01-12T19:07:53.912Z,1.50
2019-01-12T19:10:34.738Z,1.40
2019-01-12T19:13:15.598Z,1.50
2019-01-12T19:15:56.001Z,1.50
2019-01-12T19:18:36.553Z,1.40
2019-01-12T19:21:17.346Z,1.40
2019-01-12T19:23:58.357Z,1.40
2019-01-12T19:26:39.368Z,1.40
2019-01-12T19:29:20.169Z,1.40
2019-01-12T19:32:00.832Z,1.40
2019-01-12T19:34:41.725Z,1.40
2019-01-12T19:37:22.525Z,1.40
2019-01-12T19:40:03.485Z,1.40
2019-01-12T19:42:44.390Z,1.40
2019-01-12T19:45:25.142Z,1.40
2019-01-12T19:48:05.836Z,1.40
2019-01-12T19:50:46.611Z,1.40
2019-01-12T19:53:27.746Z,1.40
2019-01-12T19:56:08.465Z,1.40
2019-01-12T19:58:52.929Z,1.50
2019-01-12T20:04:18.941Z,1.50
2019-01-12T20:06:59.766Z,1.50
2019-01-12T20:09:40.575Z,1.50
2019-01-12T20:12:21.492Z,1.50
2019-01-12T20:15:02.256Z,1.50
2019-01-12T20:17:43.009Z,1.50
2019-01-12T20:20:23.843Z,1.50
2019-01-12T20:23:04.603Z,1.50
2019-01-12T20:25:45.545Z,1.40
2019-01-12T20:28:26.144Z,1.50
2019-01-12T20:31:06.804Z,1.50
2019-01-12T20:33:47.508Z,1.40
2019-01-12T20:36:27.948Z,1.40
2019-01-12T20:39:08.936Z,1.30
2019-01-12T20:41:49.889Z,1.30
2019-01-12T20:44:30.654Z,1.30
2019-01-12T20:47:11.425Z,1.30
2019-01-12T20:49:52.261Z,1.30
2019-01-12T20:52:32.999Z,1.30
2019-01-12T20:55:13.885Z,1.30
2019-01-12T20:57:54.680Z,1.20
2019-01-12T21:00:35.364Z,1.20
2019-01-12T21:03:16.384Z,1.10
2019-01-12T21:05:57.187Z,1.10
2019-01-12T21:08:38.164Z,1.00
2019-01-12T21:11:18.831Z,1.00
2019-01-12T21:13:59.510Z,0.90
2019-01-12T21:16:43.854Z,0.90
2019-01-12T21:19:25.636Z,0.90
2019-01-12T21:22:06.412Z,0.80
2019-01-12T21:24:47.033Z,0.80
2019-01-12T21:27:27.703Z,0.80
2019-01-12T21:30:08.692Z,0.80
2019-01-12T21:32:49.985Z,0.80
2019-01-12T21:35:30.664Z,0.80
2019-01-12T21:38:11.093Z,0.80
2019-01-12T21:40:51.720Z,0.70
2019-01-12T21:43:32.456Z,0.80
2019-01-12T21:46:13.477Z,0.80
2019-01-12T21:48:54.221Z,0.80
2019-01-12T21:51:35.048Z,0.70
2019-01-12T21:54:15.777Z,0.70
2019-01-12T21:56:56.533Z,0.80
2019-01-12T21:59:42.410Z,0.70
2019-01-12T22:02:20.004Z,0.70
2019-01-12T22:05:00.899Z,0.70
2019-01-12T22:07:41.548Z,0.70
2019-01-12T22:10:22.184Z,0.70
2019-01-12T22:13:02.961Z,0.70
2019-01-12T22:15:43.588Z,0.70
2019-01-12T22:18:24.529Z,0.70
2019-01-12T22:21:05.073Z,0.70
2019-01-12T22:23:45.884Z,0.70
2019-01-12T22:26:26.565Z,0.70
2019-01-12T22:29:07.208Z,0.70
2019-01-12T22:31:47.888Z,0.80
2019-01-12T22:34:28.854Z,0.90
2019-01-12T22:37:09.507Z,0.90
2019-01-12T22:39:50.537Z,0.90
2019-01-12T22:42:31.212Z,0.90
2019-01-12T22:45:11.966Z,0.90
2019-01-12T22:47:52.378Z,0.80
2019-01-12T22:50:33.274Z,0.80
2019-01-12T22:53:14.194Z,0.80
2019-01-12T22:55:43.212Z,0.80
2019-01-12T22:58:31.358Z,0.80
2019-01-12T23:01:39.079Z,0.80
2019-01-12T23:04:20.241Z,0.70
2019-01-12T23:07:00.903Z,0.70
2019-01-12T23:09:41.452Z,0.70
2019-01-12T23:12:22.364Z,0.70
2019-01-12T23:15:02.977Z,0.70
2019-01-12T23:17:44.003Z,0.60
2019-01-12T23:20:25.083Z,0.60
2019-01-12T23:23:05.924Z,0.60
2019-01-12T23:25:54.084Z,0.60
2019-01-12T23:28:34.528Z,0.60
2019-01-12T23:31:15.240Z,0.60
2019-01-12T23:33:55.921Z,0.50
2019-01-12T23:36:36.407Z,0.60
2019-01-12T23:39:17.245Z,0.70
2019-01-12T23:41:58.072Z,0.70
2019-01-12T23:44:38.996Z,0.70
2019-01-12T23:47:19.819Z,0.70
2019-01-12T23:50:00.552Z,0.70
2019-01-12T23:52:41.176Z,0.60
2019-01-12T23:55:22.432Z,0.70
2019-01-12T23:58:03.180Z,0.70
